Terminal Aerodrome Forecast
Issued by NWS Salt Lake City, UT

Home | Current Version | Previous Version | Text Only | Print | Product List | Glossary On
Versions: 1 2 3 4 5 6 7 8 9 10 11 12 13 14 15 16 17 18 19 20 21 22 23 24 25 26 27 28 29 30
000
FTUS45 KSLC 211120
TAFCDC
TAF
KCDC 211120Z 2112/2212 13006KT P6SM SCT150
     FM211400 21007KT P6SM BKN150
     FM211800 21015G23KT P6SM BKN150
     FM220300 18007KT P6SM SCT100 OVC180=

USA.gov is the U.S. government's official web portal to all federal, state and local government web resources and services.